createdAt,value
2022-10-19T00:02:18.491Z,103044.41
2022-10-19T00:04:45.007Z,103041.84
2022-10-19T00:07:11.379Z,103047.06
2022-10-19T00:09:37.905Z,103054.84
2022-10-19T00:12:04.377Z,103055.69
2022-10-19T00:14:30.787Z,103053.09
2022-10-19T00:16:58.100Z,103050.56
2022-10-19T00:19:26.721Z,103047.19
2022-10-19T00:21:54.079Z,103040.28
2022-10-19T00:24:20.900Z,103033.41
2022-10-19T00:26:47.635Z,103029.97
2022-10-19T00:29:15.585Z,103037.78
2022-10-19T00:31:42.386Z,103034.38
2022-10-19T00:34:09.111Z,103032.66
2022-10-19T00:36:38.104Z,103039.59
2022-10-19T00:39:08.241Z,103037.00
2022-10-19T00:41:36.220Z,103041.34
2022-10-19T00:44:05.721Z,103040.50
2022-10-19T00:46:36.081Z,103036.16
2022-10-19T00:49:10.002Z,103039.63
2022-10-19T00:51:41.499Z,103041.31
2022-10-19T00:54:09.314Z,103041.31
2022-10-19T00:56:39.575Z,103032.66
2022-10-19T00:59:07.877Z,103034.41
2022-10-19T01:01:35.014Z,103042.19
2022-10-19T01:04:03.483Z,103033.53
2022-10-19T01:06:30.430Z,103033.59
2022-10-19T01:08:56.859Z,103030.16
2022-10-19T01:11:45.037Z,103030.19
2022-10-19T01:14:26.323Z,103028.50
2022-10-19T01:16:55.545Z,103030.28
2022-10-19T01:19:45.534Z,103025.09
2022-10-19T01:22:49.971Z,103019.91
2022-10-19T01:25:31.201Z,103018.25
2022-10-19T01:28:04.109Z,103011.38
2022-10-19T01:30:59.435Z,103012.28
2022-10-19T01:33:34.383Z,103017.47
2022-10-19T01:36:20.995Z,103012.28
2022-10-19T01:39:18.300Z,103009.72
2022-10-19T01:42:00.376Z,103001.94
2022-10-19T01:44:37.914Z,103006.28
2022-10-19T01:47:10.575Z,103007.16
2022-10-19T01:50:01.114Z,103013.19
2022-10-19T01:52:28.514Z,103011.47
2022-10-19T01:54:59.471Z,103001.09
2022-10-19T01:57:30.261Z,103000.25
2022-10-19T01:59:57.736Z,103008.03
2022-10-19T02:02:27.812Z,103004.56
2022-10-19T02:04:56.774Z,103004.56
2022-10-19T02:07:24.801Z,103004.56
2022-10-19T02:09:51.440Z,103012.38
2022-10-19T02:12:20.007Z,103005.47
2022-10-19T02:14:51.770Z,103011.53
2022-10-19T02:17:23.300Z,103005.47
2022-10-19T02:19:49.650Z,103002.03
2022-10-19T02:22:16.122Z,103002.91
2022-10-19T02:24:42.503Z,103002.03
2022-10-19T02:27:09.530Z,103001.19
2022-10-19T02:29:37.886Z,102996.88
2022-10-19T02:32:04.775Z,103004.66
2022-10-19T02:34:31.631Z,103002.97
2022-10-19T02:36:58.505Z,102998.66
2022-10-19T02:39:25.509Z,103002.13
2022-10-19T02:41:59.870Z,103002.09
2022-10-19T02:44:31.301Z,102997.78
2022-10-19T02:47:13.303Z,102990.84
2022-10-19T02:49:41.105Z,102986.53
2022-10-19T02:52:09.833Z,102992.59
2022-10-19T02:54:39.110Z,102990.88
2022-10-19T02:57:14.511Z,102984.84
2022-10-19T02:59:41.032Z,102984.81
2022-10-19T03:02:07.916Z,102985.72
2022-10-19T03:04:34.558Z,102981.38
2022-10-19T03:07:01.260Z,102977.94
2022-10-19T03:09:27.668Z,102976.22
2022-10-19T03:11:55.716Z,102977.06
2022-10-19T03:14:22.148Z,102977.09
2022-10-19T03:16:48.519Z,102970.19
2022-10-19T03:19:14.992Z,102972.78
2022-10-19T03:21:41.408Z,102978.81
2022-10-19T03:24:07.797Z,102970.19
2022-10-19T03:26:34.221Z,102963.28
2022-10-19T03:29:00.734Z,102954.66
2022-10-19T03:31:27.254Z,102959.81
2022-10-19T03:33:53.786Z,102966.75
2022-10-19T03:36:27.623Z,102957.25
2022-10-19T03:38:56.248Z,102977.97
2022-10-19T03:41:24.948Z,102968.47
2022-10-19T03:43:51.964Z,102970.19
2022-10-19T03:46:19.170Z,102968.47
2022-10-19T03:48:45.698Z,102962.47
2022-10-19T03:51:15.478Z,102973.66
2022-10-19T03:53:44.080Z,102971.09
2022-10-19T03:56:16.017Z,102961.59
2022-10-19T03:58:44.146Z,102961.59
2022-10-19T04:01:16.786Z,102971.94
2022-10-19T04:03:43.654Z,102973.66
2022-10-19T04:06:16.932Z,102958.13
2022-10-19T04:08:48.862Z,102968.50
2022-10-19T04:11:17.171Z,102965.06
2022-10-19T04:13:43.620Z,102959.88
2022-10-19T04:16:13.841Z,102958.16
2022-10-19T04:18:40.249Z,102965.06
2022-10-19T04:21:07.193Z,102961.63
2022-10-19T04:23:35.687Z,102962.44
2022-10-19T04:26:07.603Z,102961.63
2022-10-19T04:28:34.814Z,102960.75
2022-10-19T04:31:05.870Z,102964.19
2022-10-19T04:33:33.645Z,102970.22
2022-10-19T04:36:05.134Z,102972.84
2022-10-19T04:38:32.844Z,102969.38
2022-10-19T04:41:11.430Z,102957.28
2022-10-19T04:43:38.159Z,102959.03
2022-10-19T04:46:10.474Z,102963.31
2022-10-19T04:48:38.302Z,102963.34
2022-10-19T04:51:05.316Z,102966.78
2022-10-19T04:53:33.168Z,102972.84
2022-10-19T04:55:59.962Z,102979.72
2022-10-19T04:58:27.362Z,102976.28
2022-10-19T05:00:53.880Z,102967.63
2022-10-19T05:03:20.458Z,102973.69
2022-10-19T05:05:46.916Z,102972.81
2022-10-19T05:08:13.326Z,102971.13
2022-10-19T05:10:41.211Z,102966.78
2022-10-19T05:13:09.600Z,102966.78
2022-10-19T05:15:36.005Z,102960.72
2022-10-19T05:18:02.484Z,102964.19
2022-10-19T05:20:28.936Z,102963.31
2022-10-19T05:22:55.317Z,102964.16
2022-10-19T05:25:21.750Z,102960.72
2022-10-19T05:27:52.483Z,102953.81
2022-10-19T05:30:21.763Z,102948.63
2022-10-19T05:32:48.841Z,102943.47
2022-10-19T05:35:17.590Z,102946.03
2022-10-19T05:37:46.491Z,102945.19
2022-10-19T05:40:12.961Z,102943.44
2022-10-19T05:42:39.501Z,102949.50
2022-10-19T05:45:06.443Z,102948.59
2022-10-19T05:47:34.419Z,102956.34
2022-10-19T05:50:00.914Z,102958.09
2022-10-19T05:52:27.712Z,102955.50
2022-10-19T05:54:54.089Z,102949.47
2022-10-19T05:57:20.476Z,102939.13
2022-10-19T05:59:46.941Z,102946.00
2022-10-19T06:02:14.191Z,102949.50
2022-10-19T06:04:40.656Z,102953.78
2022-10-19T06:07:07.199Z,102952.91
2022-10-19T06:09:36.213Z,102949.44
2022-10-19T06:12:03.712Z,102950.34
2022-10-19T06:14:30.249Z,102943.44
2022-10-19T06:16:56.731Z,102939.97
2022-10-19T06:19:23.139Z,102939.97
2022-10-19T06:21:49.562Z,102942.56
2022-10-19T06:24:16.028Z,102948.63
2022-10-19T06:26:42.593Z,102955.50
2022-10-19T06:29:09.708Z,102955.50
2022-10-19T06:31:36.609Z,102962.41
2022-10-19T06:34:03.814Z,102961.56
2022-10-19T06:36:31.390Z,102961.56
2022-10-19T06:38:59.574Z,102962.44
2022-10-19T06:41:26.005Z,102956.41
2022-10-19T06:43:53.870Z,102963.31
2022-10-19T06:46:23.239Z,102956.44
2022-10-19T06:48:55.003Z,102956.41
2022-10-19T06:51:21.953Z,102953.00
2022-10-19T06:53:51.696Z,102950.38
2022-10-19T06:56:24.484Z,102947.78
2022-10-19T06:58:51.053Z,102940.03
2022-10-19T07:01:17.643Z,102937.44
2022-10-19T07:03:44.279Z,102935.69
2022-10-19T07:06:12.717Z,102929.63
2022-10-19T07:08:40.964Z,102939.13
2022-10-19T07:11:11.406Z,102931.28
2022-10-19T07:13:38.197Z,102930.41
2022-10-19T07:16:20.622Z,102935.50
2022-10-19T07:18:49.288Z,102932.06
2022-10-19T07:21:16.761Z,102933.75
2022-10-19T07:23:47.266Z,102931.97
2022-10-19T07:26:21.265Z,102940.59
2022-10-19T07:28:48.910Z,102943.13
2022-10-19T07:31:17.916Z,102932.63
2022-10-19T07:33:44.762Z,102931.69
2022-10-19T07:36:13.247Z,102929.91
2022-10-19T07:38:40.543Z,102938.50
2022-10-19T07:41:11.047Z,102935.81
2022-10-19T07:43:37.467Z,102944.38
2022-10-19T07:46:06.831Z,102946.03
2022-10-19T07:48:34.491Z,102943.34
2022-10-19T07:51:02.567Z,102938.91
2022-10-19T07:53:29.101Z,102943.13
2022-10-19T07:55:56.033Z,102943.06
2022-10-19T07:58:22.705Z,102940.34
2022-10-19T08:00:49.275Z,102943.72
2022-10-19T08:06:04.138Z,102940.91
2022-10-19T08:08:30.871Z,102936.47
2022-10-19T08:10:57.639Z,102942.41
2022-10-19T08:13:24.257Z,102948.38
2022-10-19T08:15:50.611Z,102939.53
2022-10-19T08:18:18.337Z,102944.66
2022-10-19T08:20:44.986Z,102934.97
2022-10-19T08:23:11.353Z,102930.50
2022-10-19T08:25:37.697Z,102940.66
2022-10-19T08:28:04.248Z,102939.53
2022-10-19T08:30:30.631Z,102940.97
2022-10-19T08:32:56.996Z,102929.47
2022-10-19T08:35:23.386Z,102929.13
2022-10-19T08:37:49.939Z,102922.00
2022-10-19T08:40:20.784Z,102915.66
2022-10-19T08:42:57.755Z,102918.78
2022-10-19T08:45:38.603Z,102915.94
2022-10-19T08:48:25.474Z,102907.84
2022-10-19T08:50:52.915Z,102900.69
2022-10-19T08:53:30.424Z,102898.69
2022-10-19T08:56:49.489Z,102904.53
2022-10-19T08:59:33.681Z,102898.22
2022-10-19T09:02:34.464Z,102898.84
2022-10-19T09:05:11.611Z,102889.91
2022-10-19T09:07:45.388Z,102883.75
2022-10-19T09:10:14.720Z,102879.13
2022-10-19T09:13:05.551Z,102874.47
2022-10-19T09:15:42.539Z,102866.22
2022-10-19T09:18:11.564Z,102866.88
2022-10-19T09:20:48.049Z,102866.72
2022-10-19T09:23:32.529Z,102873.41
2022-10-19T09:25:58.882Z,102875.03
2022-10-19T09:28:50.504Z,102876.50
2022-10-19T09:31:31.950Z,102884.81
2022-10-19T09:34:14.045Z,102875.97
2022-10-19T09:36:50.664Z,102867.06
2022-10-19T09:39:17.838Z,102876.50
2022-10-19T09:41:51.670Z,102863.91
2022-10-19T09:44:18.583Z,102861.84
2022-10-19T09:47:24.037Z,102861.66
2022-10-19T09:49:50.491Z,102853.72
2022-10-19T09:52:38.143Z,102842.31
2022-10-19T09:55:22.703Z,102845.72
2022-10-19T09:57:58.319Z,102841.13
2022-10-19T10:00:32.847Z,102856.00
2022-10-19T10:02:59.285Z,102849.28
2022-10-19T10:05:33.092Z,102847.50
2022-10-19T10:07:59.647Z,102849.94
2022-10-19T10:10:37.038Z,102848.03
2022-10-19T10:13:03.775Z,102833.88
2022-10-19T10:15:42.582Z,102834.53
2022-10-19T10:18:15.699Z,102834.22
2022-10-19T10:21:13.984Z,102828.81
2022-10-19T10:23:40.474Z,102835.56
2022-10-19T10:26:17.571Z,102840.63
2022-10-19T10:28:51.208Z,102844.25
2022-10-19T10:31:28.465Z,102840.13
2022-10-19T10:34:16.236Z,102840.25
2022-10-19T10:36:53.978Z,102827.19
2022-10-19T10:39:20.615Z,102833.00
2022-10-19T10:41:48.982Z,102826.56
2022-10-19T10:44:23.087Z,102819.44
2022-10-19T10:46:56.970Z,102818.34
2022-10-19T10:49:28.009Z,102817.19
2022-10-19T10:52:06.857Z,102813.22
2022-10-19T10:54:33.855Z,102797.41
2022-10-19T10:57:12.708Z,102798.94
2022-10-19T11:00:12.135Z,102796.53
2022-10-19T11:02:46.421Z,102782.38
2022-10-19T11:05:24.463Z,102778.63
2022-10-19T11:07:58.136Z,102780.22
2022-10-19T11:10:32.976Z,102776.56
2022-10-19T11:13:10.128Z,102766.06
2022-10-19T11:15:55.327Z,102767.81
2022-10-19T11:18:27.612Z,102757.09
2022-10-19T11:21:23.376Z,102760.97
2022-10-19T11:24:27.403Z,102756.06
2022-10-19T11:27:10.348Z,102755.56
2022-10-19T11:30:09.465Z,102744.22
2022-10-19T11:32:51.922Z,102723.91
2022-10-19T11:35:34.550Z,102723.56
2022-10-19T11:38:23.367Z,102719.81
2022-10-19T11:41:17.914Z,102720.38
2022-10-19T11:44:02.617Z,102720.88
2022-10-19T11:46:43.385Z,102715.59
2022-10-19T11:49:37.155Z,102705.97
2022-10-19T11:52:24.685Z,102713.56
2022-10-19T11:55:02.577Z,102689.94
2022-10-19T11:57:51.073Z,102689.25
2022-10-19T12:00:38.226Z,102674.94
2022-10-19T12:03:22.732Z,102675.72
2022-10-19T12:06:00.966Z,102672.31
2022-10-19T12:08:33.511Z,102669.56
2022-10-19T12:11:11.866Z,102667.47
2022-10-19T12:13:48.113Z,102660.91
2022-10-19T12:16:17.302Z,102659.88
2022-10-19T12:18:48.901Z,102654.72
2022-10-19T12:21:31.565Z,102647.69
2022-10-19T12:24:00.707Z,102642.38
2022-10-19T12:26:29.769Z,102636.22
2022-10-19T12:29:00.738Z,102634.50
2022-10-19T12:31:29.860Z,102636.94
2022-10-19T12:34:04.533Z,102633.69
2022-10-19T12:36:48.090Z,102622.38
2022-10-19T12:39:23.253Z,102613.31
2022-10-19T12:42:24.399Z,102615.66
2022-10-19T12:45:13.845Z,102611.34
2022-10-19T12:47:40.700Z,102605.00
2022-10-19T12:50:07.690Z,102594.50
2022-10-19T12:52:48.133Z,102591.09
2022-10-19T12:55:34.729Z,102586.84
2022-10-19T12:58:17.713Z,102574.47
2022-10-19T13:00:59.265Z,102565.69
2022-10-19T13:03:31.122Z,102561.84
2022-10-19T13:06:00.020Z,102555.47
2022-10-19T13:08:40.910Z,102549.19
2022-10-19T13:11:14.642Z,102544.94
2022-10-19T13:13:59.219Z,102544.63
2022-10-19T13:17:02.106Z,102540.78
2022-10-19T13:19:29.340Z,102534.13
2022-10-19T13:22:01.864Z,102523.75
2022-10-19T13:24:37.063Z,102524.63
2022-10-19T13:27:03.570Z,102520.91
2022-10-19T13:29:39.373Z,102521.84
2022-10-19T13:32:40.486Z,102514.59
2022-10-19T13:35:23.802Z,102508.38
2022-10-19T13:38:09.194Z,102521.34
2022-10-19T13:40:55.479Z,102514.34
2022-10-19T13:43:28.733Z,102512.50
2022-10-19T13:46:30.479Z,102511.66
2022-10-19T13:49:17.369Z,102509.09
2022-10-19T13:52:17.387Z,102504.78
2022-10-19T13:55:20.968Z,102497.03
2022-10-19T13:58:18.486Z,102498.72
2022-10-19T14:01:15.395Z,102497.16
2022-10-19T14:04:07.280Z,102504.06
2022-10-19T14:06:42.283Z,102499.75
2022-10-19T14:09:35.263Z,102495.19
2022-10-19T14:12:08.078Z,102493.63
2022-10-19T14:14:43.229Z,102498.03
2022-10-19T14:17:24.639Z,102503.50
2022-10-19T14:19:57.698Z,102507.34
2022-10-19T14:22:31.042Z,102500.47
2022-10-19T14:25:27.283Z,102511.81
2022-10-19T14:28:02.341Z,102506.69
2022-10-19T14:30:34.978Z,102507.63
2022-10-19T14:33:08.004Z,102508.56
2022-10-19T14:35:41.287Z,102499.88
2022-10-19T14:38:16.392Z,102491.94
2022-10-19T14:40:43.012Z,102492.84
2022-10-19T14:43:26.345Z,102495.44
2022-10-19T14:46:07.983Z,102505.00
2022-10-19T14:48:35.953Z,102492.84
2022-10-19T14:51:09.607Z,102490.31
2022-10-19T14:53:44.643Z,102487.69
2022-10-19T14:56:36.812Z,102477.22
2022-10-19T14:59:22.280Z,102479.16
2022-10-19T15:01:51.543Z,102468.72
2022-10-19T15:04:28.888Z,102458.13
2022-10-19T15:06:56.171Z,102459.16
2022-10-19T15:09:47.404Z,102460.19
2022-10-19T15:12:20.644Z,102449.91
2022-10-19T15:14:47.929Z,102442.97
2022-10-19T15:17:29.601Z,102444.78
2022-10-19T15:19:59.886Z,102437.13
2022-10-19T15:22:39.609Z,102437.41
2022-10-19T15:25:05.942Z,102435.03
2022-10-19T15:27:41.829Z,102428.19
2022-10-19T15:30:17.485Z,102424.09
2022-10-19T15:32:46.373Z,102420.09
2022-10-19T15:35:33.184Z,102415.25
2022-10-19T15:38:04.146Z,102413.84
2022-10-19T15:40:36.084Z,102407.94
2022-10-19T15:43:34.731Z,102410.06
2022-10-19T15:46:01.600Z,102417.44
2022-10-19T15:48:40.530Z,102418.63
2022-10-19T15:51:27.384Z,102416.28
2022-10-19T15:53:56.303Z,102404.34
2022-10-19T15:56:24.762Z,102403.72
2022-10-19T15:58:53.085Z,102397.88
2022-10-19T16:01:23.195Z,102390.28
2022-10-19T16:03:50.152Z,102390.41
2022-10-19T16:06:18.157Z,102381.00
2022-10-19T16:08:46.206Z,102382.16
2022-10-19T16:11:18.248Z,102376.38
2022-10-19T16:13:45.359Z,102366.94
2022-10-19T16:16:32.343Z,102371.50
2022-10-19T16:18:59.904Z,102369.88
2022-10-19T16:21:32.460Z,102362.31
2022-10-19T16:23:59.435Z,102368.69
2022-10-19T16:26:26.397Z,102363.69
2022-10-19T16:28:54.329Z,102356.94
2022-10-19T16:31:21.631Z,102356.19
2022-10-19T16:33:47.986Z,102365.16
2022-10-19T16:36:14.512Z,102369.66
2022-10-19T16:38:41.047Z,102372.47
2022-10-19T16:41:09.915Z,102365.53
2022-10-19T16:43:36.728Z,102363.22
2022-10-19T16:46:04.392Z,102365.16
2022-10-19T16:48:31.331Z,102357.31
2022-10-19T16:51:06.793Z,102361.75
2022-10-19T16:53:37.908Z,102354.09
2022-10-19T16:56:09.963Z,102351.59
2022-10-19T16:58:38.983Z,102345.66
2022-10-19T17:01:17.586Z,102336.19
2022-10-19T17:03:45.625Z,102330.09
2022-10-19T17:06:12.789Z,102339.78
2022-10-19T17:09:02.699Z,102332.97
2022-10-19T17:11:29.656Z,102329.66
2022-10-19T17:13:58.478Z,102328.00
2022-10-19T17:16:26.494Z,102328.00
2022-10-19T17:18:55.593Z,102323.75
2022-10-19T17:21:25.623Z,102324.72
2022-10-19T17:23:53.973Z,102311.81
2022-10-19T17:26:32.351Z,102317.06
2022-10-19T17:28:59.679Z,102321.47
2022-10-19T17:31:27.294Z,102325.13
2022-10-19T17:33:58.083Z,102316.44
2022-10-19T17:36:28.136Z,102318.22
2022-10-19T17:38:56.080Z,102315.69
2022-10-19T17:41:22.479Z,102315.72
2022-10-19T17:43:51.681Z,102319.38
2022-10-19T17:46:20.823Z,102316.03
2022-10-19T17:48:47.345Z,102316.91
2022-10-19T17:51:16.329Z,102307.44
2022-10-19T17:53:44.487Z,102310.81
2022-10-19T17:56:13.338Z,102306.59
2022-10-19T17:58:39.981Z,102305.66
2022-10-19T18:01:07.478Z,102297.81
2022-10-19T18:03:35.863Z,102304.09
2022-10-19T18:06:06.848Z,102312.94
2022-10-19T18:08:39.442Z,102313.00
2022-10-19T18:11:08.265Z,102315.63
2022-10-19T18:16:08.955Z,102328.88
2022-10-19T18:18:38.234Z,102328.00
2022-10-19T18:21:06.631Z,102316.81
2022-10-19T18:23:33.199Z,102321.19
2022-10-19T18:26:04.295Z,102323.75
2022-10-19T18:28:32.272Z,102315.09
2022-10-19T18:31:10.311Z,102315.28
2022-10-19T18:33:37.151Z,102319.66
2022-10-19T18:36:04.687Z,102310.09
2022-10-19T18:38:31.670Z,102298.84
2022-10-19T18:41:11.581Z,102303.28
2022-10-19T18:43:41.421Z,102297.25
2022-10-19T18:46:09.280Z,102288.66
2022-10-19T18:48:37.725Z,102279.19
2022-10-19T18:51:06.861Z,102279.28
2022-10-19T18:53:33.913Z,102270.53
2022-10-19T18:56:02.365Z,102276.69
2022-10-19T18:58:30.897Z,102282.91
2022-10-19T19:01:12.647Z,102273.56
2022-10-19T19:03:41.625Z,102271.88
2022-10-19T19:06:12.355Z,102273.03
2022-10-19T19:08:39.430Z,102277.53
2022-10-19T19:11:14.453Z,102268.97
2022-10-19T19:13:42.194Z,102269.13
2022-10-19T19:16:09.325Z,102264.72
2022-10-19T19:18:35.996Z,102254.28
2022-10-19T19:21:04.188Z,102248.28
2022-10-19T19:23:30.972Z,102246.69
2022-10-19T19:25:57.402Z,102241.53
2022-10-19T19:28:23.728Z,102237.25
2022-10-19T19:30:50.286Z,102232.88
2022-10-19T19:33:16.682Z,102221.00
2022-10-19T19:35:44.721Z,102213.22
2022-10-19T19:38:12.209Z,102202.88
2022-10-19T19:40:40.483Z,102199.31
2022-10-19T19:43:07.216Z,102193.25
2022-10-19T19:45:33.632Z,102186.44
2022-10-19T19:47:59.973Z,102178.69
2022-10-19T19:50:26.368Z,102181.44
2022-10-19T19:52:52.703Z,102177.22
2022-10-19T19:55:19.068Z,102172.09
2022-10-19T19:57:48.317Z,102165.25
2022-10-19T20:00:16.311Z,102160.16
2022-10-19T20:02:43.518Z,102159.38
2022-10-19T20:05:09.891Z,102161.13
2022-10-19T20:07:36.483Z,102161.97
2022-10-19T20:10:03.252Z,102167.41
2022-10-19T20:12:29.702Z,102151.84
2022-10-19T20:14:56.359Z,102147.53
2022-10-19T20:17:24.670Z,102149.31
2022-10-19T20:19:51.001Z,102137.22
2022-10-19T20:22:17.524Z,102140.84
2022-10-19T20:24:43.947Z,102134.91
2022-10-19T20:27:10.543Z,102141.94
2022-10-19T20:29:36.893Z,102144.69
2022-10-19T20:32:03.306Z,102136.94
2022-10-19T20:34:31.045Z,102135.19
2022-10-19T20:36:57.477Z,102126.59
2022-10-19T20:39:23.828Z,102120.53
2022-10-19T20:41:50.172Z,102119.78
2022-10-19T20:44:16.580Z,102112.84
2022-10-19T20:46:42.921Z,102121.69
2022-10-19T20:49:11.434Z,102108.78
2022-10-19T20:51:38.881Z,102104.50
2022-10-19T20:54:08.278Z,102101.06
2022-10-19T20:56:37.999Z,102097.78
2022-10-19T20:59:11.623Z,102096.09
2022-10-19T21:01:39.810Z,102090.97
2022-10-19T21:04:08.685Z,102089.25
2022-10-19T21:06:41.312Z,102101.41
2022-10-19T21:09:09.720Z,102082.34
2022-10-19T21:11:39.233Z,102095.44
2022-10-19T21:14:08.356Z,102094.66
2022-10-19T21:16:35.451Z,102091.28
2022-10-19T21:19:03.686Z,102086.97
2022-10-19T21:21:32.600Z,102094.91
2022-10-19T21:24:04.521Z,102095.88
2022-10-19T21:26:32.600Z,102101.09
2022-10-19T21:28:59.648Z,102093.41
2022-10-19T21:31:26.930Z,102093.59
2022-10-19T21:33:53.955Z,102099.00
2022-10-19T21:36:22.092Z,102086.97
2022-10-19T21:38:48.561Z,102078.44
2022-10-19T21:41:20.793Z,102078.63
2022-10-19T21:43:50.422Z,102077.00
2022-10-19T21:46:19.086Z,102080.44
2022-10-19T21:48:46.089Z,102077.03
2022-10-19T21:51:37.768Z,102082.22
2022-10-19T21:54:06.558Z,102075.25
2022-10-19T21:56:34.087Z,102069.25
2022-10-19T21:59:00.508Z,102071.97
2022-10-19T22:01:28.476Z,102066.78
2022-10-19T22:04:03.013Z,102066.00
2022-10-19T22:06:31.484Z,102055.56
2022-10-19T22:08:58.083Z,102045.19
2022-10-19T22:11:25.835Z,102051.22
2022-10-19T22:13:56.888Z,102043.50
2022-10-19T22:16:25.186Z,102036.59
2022-10-19T22:18:52.492Z,102040.13
2022-10-19T22:21:27.205Z,102037.56
2022-10-19T22:23:56.703Z,102039.38
2022-10-19T22:26:32.099Z,102041.16
2022-10-19T22:29:00.305Z,102036.06
2022-10-19T22:31:29.276Z,102032.69
2022-10-19T22:33:55.903Z,102026.63
2022-10-19T22:36:22.423Z,102017.13
2022-10-19T22:38:48.795Z,102013.69
2022-10-19T22:42:17.860Z,102004.09
2022-10-19T22:44:45.242Z,102013.66
2022-10-19T22:47:11.787Z,102003.34
2022-10-19T22:49:38.270Z,102005.97
2022-10-19T22:52:04.950Z,101997.41
2022-10-19T22:54:31.363Z,101985.34
2022-10-19T22:56:57.708Z,101982.69
2022-10-19T22:59:24.155Z,101974.06
2022-10-19T23:01:50.628Z,101971.44
2022-10-19T23:04:17.171Z,101974.13
2022-10-19T23:06:43.558Z,101973.31
2022-10-19T23:09:09.983Z,101969.72
2022-10-19T23:11:36.462Z,101963.75
2022-10-19T23:14:03.012Z,101970.72
2022-10-19T23:16:29.412Z,101962.13
2022-10-19T23:18:56.051Z,101966.53
2022-10-19T23:21:22.458Z,101961.47
2022-10-19T23:23:48.888Z,101957.03
2022-10-19T23:26:18.307Z,101958.72
2022-10-19T23:28:46.879Z,101946.63
2022-10-19T23:31:19.430Z,101944.94
2022-10-19T23:33:46.900Z,101939.91
2022-10-19T23:36:20.007Z,101933.84
2022-10-19T23:38:48.126Z,101926.06
2022-10-19T23:41:15.191Z,101919.16
2022-10-19T23:43:41.680Z,101918.34
2022-10-19T23:46:08.495Z,101914.06
2022-10-19T23:48:35.774Z,101920.09
2022-10-19T23:51:07.572Z,101922.69
2022-10-19T23:53:39.983Z,101919.25
2022-10-19T23:56:13.669Z,101911.53
2022-10-19T23:58:40.469Z,101906.34
